• Join FlightAware (Why Join?)
  • Login
  • US Flag 
Rudolph Flight #1: Arrived! 
04:09AM EST


 

Airport Tracker/Info


-or-


 

Live Flight TrackerFlight Track Log ✈ UPS1553 ✈ 31-Jul-2014 ✈ KNGU - KSDF

Flight Track Log - Related Links

Times and Time Zones

All times are in EDT time to prevent confusion due to time zone crossing. See the UPS1553 flight status page for this flight to view local times or setup timezone preferences in your user account.

Time Position Orientation Groundspeed Altitude Reporting Facility
EDT Latitude Longitude Course Direction KTS MPH feet Rate Location/Type
07:43AM 37.0002 -76.4402 247° West 347 399 13,200  Level FlightAware ADS-B
07:43AM 36.9712 -76.5055 239° Southwest 367 422 15,400 2,460 Climbing FlightAware ADS-B (KWWD)
07:44AM 36.9299 -76.5848 237° Southwest 371 427 16,500 2,280 Climbing FlightAware ADS-B
07:45AM 36.8754 -76.6913 239° Southwest 385 443 20,000 3,480 Climbing FlightAware ADS-B
07:46AM 36.8359 -76.7706 238° Southwest 398 458 22,300 3,900 Climbing FlightAware ADS-B
07:46AM 36.8045 -76.8330 239° Southwest 400 460 23,600 3,300 Climbing FlightAware ADS-B (KWWD)
07:47AM 36.7714 -76.8988 239° Southwest 405 466 24,900 9,840 Climbing FlightAware ADS-B (KWWD)
07:47AM 36.7883 -76.8617 60° Northeast 390 449 33,300 600 Climbing FlightAware ADS-B
07:50AM 36.5856 -77.2902 241° Southwest 392 451 27,000 -1,080 Descending FlightAware ADS-B (KWWD)
07:53AM 36.4202 -77.6427 241° Southwest 394 453 27,000 180 Level FlightAware ADS-B (KWWD)
07:54AM 36.3346 -77.8233 241° Southwest 394 453 28,000 1,500 Climbing FlightAware ADS-B (KWWD)
07:57AM 36.1667 -78.0000 217° Southwest 325 374 33,300  Climbing FlightAware ADS-B
07:58AM 36.0319 -78.0936 217° Southwest 415 478 28,000 -2,520 Descending Washington Center
07:59AM 35.9772 -78.2125 240° Southwest 397 457 28,000 1,260 Level Washington Center
08:05AM 36.0127 -79.0435 273° West 404 465 36,700 1,560 Climbing FlightAware ADS-B (KINT)
08:06AM 36.0161 -79.1306 273° West 403 464 38,000 960 Climbing FlightAware ADS-B (KINT)
08:06AM 36.0196 -79.2230 273° West 397 457 38,000  Level FlightAware ADS-B (KINT)
08:07AM 36.0231 -79.3176 273° West 401 461 38,000  Level FlightAware ADS-B (KINT)
08:08AM 36.0263 -79.4023 273° West 399 459 38,000  Level FlightAware ADS-B (KINT)
08:08AM 36.0296 -79.4964 273° West 397 457 38,000  Level FlightAware ADS-B (KINT)
08:09AM 36.0327 -79.5804 273° West 395 455 38,000  Level FlightAware ADS-B (KINT)
08:10AM 36.0359 -79.6772 272° West 394 453 38,000  Level FlightAware ADS-B (KINT)
08:10AM 36.0390 -79.7666 272° West 392 451 38,000  Level FlightAware ADS-B (KINT)
08:11AM 36.0418 -79.8521 272° West 390 449 38,000  Level FlightAware ADS-B (KINT)
08:12AM 36.0469 -79.9781 275° West 389 448 38,000  Level FlightAware ADS-B (NZFP)
08:12AM 36.0605 -80.0512 283° West 390 449 38,000  Level FlightAware ADS-B (NZFP)
08:13AM 36.0715 -80.1092 283° West 389 448 38,000  Level FlightAware ADS-B (NZFP)
08:14AM 36.0874 -80.1945 283° West 389 448 38,000  Level FlightAware ADS-B (KINT)
08:14AM 36.1061 -80.2931 283° West 389 448 38,000  Level FlightAware ADS-B (KINT)
08:15AM 36.1221 -80.3779 283° West 390 449 38,000  Level FlightAware ADS-B (KINT)
08:15AM 36.1343 -80.4432 283° West 390 449 38,000  Level FlightAware ADS-B (NZFP)
08:16AM 36.1463 -80.5078 283° West 390 449 38,000  Level FlightAware ADS-B (NZFP)
08:16AM 36.1585 -80.5732 283° West 390 449 38,000  Level FlightAware ADS-B (NZFP)
08:17AM 36.1729 -80.6497 283° West 391 450 38,000  Level FlightAware ADS-B (NZFP)
08:18AM 36.1887 -80.7352 283° West 392 451 38,000  Level FlightAware ADS-B (NZFP)
08:18AM 36.2014 -80.8042 283° West 392 451 38,000  Level FlightAware ADS-B (KINT)
08:19AM 36.2185 -80.8976 283° West 393 452 38,000  Level FlightAware ADS-B (KINT)
08:19AM 36.2318 -80.9706 283° West 394 453 38,000  Level FlightAware ADS-B (NZFP)
08:20AM 36.2508 -81.0751 283° West 394 453 38,000  Level FlightAware ADS-B (NZFP)
08:21AM 36.2658 -81.1572 283° West 395 455 38,000  Level FlightAware ADS-B (KINT)
08:21AM 36.2794 -81.2330 282° West 394 453 38,000  Level FlightAware ADS-B (NZFP)
08:22AM 36.2911 -81.2980 282° West 394 453 38,000  Level FlightAware ADS-B (NZFP)
08:22AM 36.3024 -81.3610 282° West 394 453 38,000  Level FlightAware ADS-B (NZFP)
08:23AM 36.3161 -81.4376 282° West 395 455 38,000  Level FlightAware ADS-B (NZFP)
08:24AM 36.3326 -81.5299 282° West 395 455 38,000  Level FlightAware ADS-B (NZFP)
08:24AM 36.3455 -81.6032 282° West 395 455 38,000 -240 Level FlightAware ADS-B (NZFP)
08:25AM 36.3578 -81.6728 283° West 392 451 37,700 -660 Descending FlightAware ADS-B (NZFP)
08:26AM 36.3842 -81.8234 283° West 404 465 36,900 -840 Descending FlightAware ADS-B (NZFP)
08:27AM 36.4024 -81.9266 282° West 407 468 36,400 -780 Descending FlightAware ADS-B (NZFP)
08:27AM 36.4052 -81.9428 282° West 411 473 35,800 -840 Descending FlightAware ADS-B (NZFP)
08:28AM 36.4391 -82.1337 289° West 416 479 35,200 -600 Descending FlightAware ADS-B (NZFP)
08:29AM 36.4597 -82.2086 289° West 410 472 35,000 -180 Descending Atlanta Center
08:30AM 36.5011 -82.3394 292° West 415 478 35,000  Level Atlanta Center
08:30AM 36.5011 -82.3394 292° West 415 478 35,000  Level Atlanta Center
08:31AM 36.5403 -82.4650 291° West 404 465 35,000 -480 Level Atlanta Center
08:33AM 36.6197 -82.7206 291° West 401 461 33,600 -780 Descending Indianapolis Center
08:34AM 36.6667 -82.8742 291° West 402 463 32,700 -840 Descending Indianapolis Center
08:35AM 36.7072 -83.0075 291° West 403 464 31,900 -780 Descending Indianapolis Center
08:36AM 36.7475 -83.1422 290° West 406 467 31,100 -780 Descending Indianapolis Center
08:37AM 36.7881 -83.2772 291° West 408 470 30,300 -540 Descending Indianapolis Center
08:38AM 36.8281 -83.4119 290° West 411 473 30,000 -180 Descending Indianapolis Center
08:39AM 36.8681 -83.5458 291° West 410 472 30,000 -240 Level Indianapolis Center
08:40AM 36.9078 -83.6797 290° West 410 472 29,600 -780 Descending Indianapolis Center
08:46AM 37.1436 -84.4647 276° West 372 428 24,900 -840 Descending FlightAware ADS-B
08:47AM 37.1533 -84.5806 276° West 371 427 24,100 -900 Descending FlightAware ADS-B
08:48AM 37.1650 -84.7237 276° West 382 440 23,200 -900 Descending FlightAware ADS-B
08:49AM 37.1789 -84.8539 288° West 383 441 22,400 -1,440 Descending FlightAware ADS-B
08:50AM 37.2571 -84.9347 352° North 383 441 20,400 -2,280 Descending FlightAware ADS-B
08:51AM 37.3613 -84.9393 358° North 368 423 17,900 -2,700 Descending FlightAware ADS-B
08:52AM 37.4581 -84.9444 356° North 349 402 15,100 -2,640 Descending FlightAware ADS-B
08:52AM 37.5227 -84.9487 358° North 341 392 13,600 -1,620 Descending FlightAware ADS-B
08:55AM 37.7195 -85.0443 315° West 323 372 10,100 -1,140 Descending FlightAware ADS-B
08:56AM 37.7808 -85.1268 313° West 323 372 9,800 -480 Descending FlightAware ADS-B
08:57AM 37.8242 -85.2152 289° West 283 326 9,200 -1,020 Descending FlightAware ADS-B
08:58AM 37.8531 -85.3075 292° West 274 315 7,800 -1,440 Descending FlightAware ADS-B
08:59AM 37.8821 -85.4037 291° West 266 306 6,300 -1,380 Descending FlightAware ADS-B
09:00AM 37.9082 -85.4900 291° West 259 298 5,000 -1,200 Descending FlightAware ADS-B
09:01AM 37.9338 -85.5732 290° West 256 295 3,900 -1,080 Descending FlightAware ADS-B
09:02AM 37.9588 -85.6530 307° West 234 269 2,900 -540 Descending FlightAware ADS-B
09:03AM 38.0107 -85.6879 342° North 192 221 2,900 -300 Level FlightAware ADS-B
09:04AM 38.0564 -85.7055 344° North 144 166 2,400 -660 Descending FlightAware ADS-B
09:05AM 38.0941 -85.7173 345° North 142 163 1,600 -780 Descending FlightAware ADS-B
09:06AM 38.1154 -85.7244 345° North 139 160 1,000 -720 Descending FlightAware ADS-B
09:14AM 38.1667 -85.7333 208° Southwest  Level FlightAware Approximate
09:15AM 38.1741 -85.7365 208° Southwest  Level Estimated